Time;durP1;ratioP1;P1;durP2;ratioP2;P2;SDS_P1;SDS_P2;PMS_P1;PMS_P2;Temp;Humidity;BMP_temperature;BMP_pressure;BME280_temperature;BME280_humidity;BME280_pressure;Samples;Min_cycle;Max_cycle;Signal;HPM_P1;HPM_P2
2021/12/12 00:00:04;;;;;;;42.08;10.43;;;;;;;;;;5101591;28;20028;-72
2021/12/12 00:02:49;;;;;;;42.35;11.25;;;;;;;;;;5108214;28;20024;-71
2021/12/12 00:05:17;;;;;;;62.67;13.00;;;;;;;;;;5129542;27;20125;-69
2021/12/12 00:07:43;;;;;;;43.75;11.80;;;;;;;;;;5124140;27;20034;-71
2021/12/12 00:10:12;;;;;;;42.65;10.77;;;;;;;;;;5101248;28;20496;-70
2021/12/12 00:12:43;;;;;;;42.88;10.75;;;;;;;;;;5112640;28;20524;-71
2021/12/12 00:15:11;;;;;;;46.92;11.15;;;;;;;;;;5112754;28;20020;-71
2021/12/12 00:17:39;;;;;;;39.83;10.57;;;;;;;;;;5114400;28;20088;-71
2021/12/12 00:20:07;;;;;;;40.90;11.15;;;;;;;;;;5104133;28;20027;-70
2021/12/12 00:22:33;;;;;;;42.97;10.00;;;;;;;;;;5093842;28;20047;-71
2021/12/12 00:25:00;;;;;;;59.13;11.95;;;;;;;;;;5092616;28;20113;-70
2021/12/12 00:27:26;;;;;;;44.90;11.05;;;;;;;;;;5092668;28;20423;-71
2021/12/12 00:29:53;;;;;;;42.22;10.13;;;;;;;;;;5087698;28;20028;-69
2021/12/12 00:32:22;;;;;;;46.75;9.98;;;;;;;;;;5085579;28;20413;-71
2021/12/12 00:34:53;;;;;;;43.30;9.57;;;;;;;;;;5107396;28;20126;-70
2021/12/12 00:37:20;;;;;;;32.78;10.02;;;;;;;;;;5096400;28;20032;-70
2021/12/12 00:39:52;;;;;;;37.60;10.05;;;;;;;;;;5088596;28;20028;-71
2021/12/12 00:42:26;;;;;;;36.17;9.45;;;;;;;;;;5095993;28;20032;-71
2021/12/12 00:44:55;;;;;;;42.40;10.00;;;;;;;;;;5096357;28;20028;-70
2021/12/12 00:47:21;;;;;;;51.38;11.15;;;;;;;;;;5112637;28;20072;-71
2021/12/12 00:49:48;;;;;;;41.83;9.48;;;;;;;;;;5110139;28;20069;-70
2021/12/12 00:52:16;;;;;;;50.45;10.82;;;;;;;;;;5108376;28;20031;-71
2021/12/12 00:54:44;;;;;;;46.15;10.75;;;;;;;;;;5104629;28;20485;-71
2021/12/12 00:57:12;;;;;;;39.58;10.13;;;;;;;;;;5097447;28;20060;-70
2021/12/12 00:59:38;;;;;;;46.90;10.57;;;;;;;;;;5099918;28;20043;-70
2021/12/12 01:02:09;;;;;;;40.50;9.60;;;;;;;;;;5097275;28;20496;-71
2021/12/12 01:04:40;;;;;;;41.65;9.45;;;;;;;;;;5099610;28;20100;-73
2021/12/12 01:07:08;;;;;;;37.95;9.70;;;;;;;;;;5102134;28;20488;-70
2021/12/12 01:09:38;;;;;;;41.00;11.63;;;;;;;;;;5098608;28;20062;-71
2021/12/12 01:12:07;;;;;;;49.58;11.18;;;;;;;;;;5099656;28;20382;-70
2021/12/12 01:14:36;;;;;;;49.85;11.02;;;;;;;;;;5093473;28;20024;-70
2021/12/12 01:17:08;;;;;;;61.05;12.45;;;;;;;;;;5094362;28;20373;-70
2021/12/12 01:19:37;;;;;;;58.38;11.73;;;;;;;;;;5087934;28;20035;-69
2021/12/12 01:22:06;;;;;;;51.28;11.73;;;;;;;;;;5092542;28;20048;-70
2021/12/12 01:24:42;;;;;;;41.20;10.57;;;;;;;;;;5086602;28;20024;-70
2021/12/12 01:27:10;;;;;;;48.05;11.68;;;;;;;;;;5091423;28;20116;-69
2021/12/12 01:29:36;;;;;;;42.30;10.82;;;;;;;;;;5093323;28;20035;-70
2021/12/12 01:32:05;;;;;;;46.15;11.75;;;;;;;;;;5091758;28;20036;-69
2021/12/12 01:34:32;;;;;;;40.80;11.63;;;;;;;;;;5095248;28;20055;-70
2021/12/12 01:39:27;;;;;;;46.85;10.98;;;;;;;;;;5086624;28;20361;-70
2021/12/12 01:42:00;;;;;;;42.97;11.68;;;;;;;;;;5089924;28;20040;-70
2021/12/12 01:44:33;;;;;;;36.45;11.13;;;;;;;;;;5089360;28;20099;-71
2021/12/12 01:46:59;;;;;;;51.95;12.45;;;;;;;;;;5094279;28;20077;-70
2021/12/12 01:49:26;;;;;;;44.50;13.05;;;;;;;;;;5086930;28;20480;-70
2021/12/12 01:51:54;;;;;;;44.88;14.75;;;;;;;;;;5103055;28;20394;-71
2021/12/12 01:54:25;;;;;;;42.08;14.15;;;;;;;;;;5094226;28;20036;-69
2021/12/12 01:56:54;;;;;;;40.45;11.70;;;;;;;;;;5082700;28;20017;-71
2021/12/12 01:59:25;;;;;;;42.60;12.88;;;;;;;;;;5084656;28;20154;-71
2021/12/12 02:01:53;;;;;;;40.20;11.88;;;;;;;;;;5089004;28;20031;-70
2021/12/12 02:04:22;;;;;;;50.63;15.95;;;;;;;;;;5097938;28;20122;-71
2021/12/12 02:06:50;;;;;;;52.22;18.30;;;;;;;;;;5094411;28;20028;-70
2021/12/12 02:09:17;;;;;;;56.10;19.70;;;;;;;;;;5097769;28;20136;-70
2021/12/12 02:11:45;;;;;;;51.15;19.38;;;;;;;;;;5087900;28;20028;-71
2021/12/12 02:14:12;;;;;;;61.08;20.52;;;;;;;;;;5074201;28;20044;-71
2021/12/12 02:16:42;;;;;;;54.83;18.88;;;;;;;;;;5102973;28;20028;-72
2021/12/12 02:19:09;;;;;;;56.00;20.92;;;;;;;;;;5099804;28;20366;-71
2021/12/12 02:21:57;;;;;;;57.05;22.75;;;;;;;;;;5095138;28;20044;-71
2021/12/12 02:35:26;;;;;;;62.75;17.55;;;;;;;;;;5092366;28;20035;-71
2021/12/12 02:37:55;;;;;;;71.30;21.45;;;;;;;;;;5091006;28;20028;-71
2021/12/12 02:40:24;;;;;;;67.82;23.17;;;;;;;;;;5095473;28;20024;-71
2021/12/12 02:42:50;;;;;;;63.83;23.95;;;;;;;;;;5083658;28;20074;-71
2021/12/12 02:45:18;;;;;;;62.92;20.00;;;;;;;;;;5087199;28;20066;-70
2021/12/12 02:47:47;;;;;;;60.00;20.15;;;;;;;;;;5093199;28;20107;-69
2021/12/12 02:50:18;;;;;;;59.83;19.77;;;;;;;;;;5091199;28;20073;-71
2021/12/12 02:52:47;;;;;;;58.53;19.83;;;;;;;;;;5093575;28;20036;-71
2021/12/12 02:55:19;;;;;;;52.42;18.27;;;;;;;;;;5093126;28;20024;-70
2021/12/12 02:57:46;;;;;;;65.97;22.80;;;;;;;;;;5086890;28;20016;-71
2021/12/12 03:00:17;;;;;;;59.22;22.58;;;;;;;;;;5089847;28;20545;-72
2021/12/12 03:02:46;;;;;;;84.95;25.77;;;;;;;;;;5092382;28;20038;-73
2021/12/12 03:05:13;;;;;;;76.25;22.85;;;;;;;;;;5090003;28;20046;-71
2021/12/12 03:07:40;;;;;;;88.00;29.73;;;;;;;;;;5088659;28;20115;-71
2021/12/12 03:10:09;;;;;;;64.30;25.60;;;;;;;;;;5099006;28;20028;-71
2021/12/12 03:12:36;;;;;;;72.70;26.17;;;;;;;;;;5092795;28;20118;-71
2021/12/12 03:15:12;;;;;;;78.50;28.92;;;;;;;;;;5088903;28;20498;-71
2021/12/12 03:17:40;;;;;;;71.22;26.17;;;;;;;;;;5091140;28;20023;-72
2021/12/12 03:20:11;;;;;;;76.95;28.85;;;;;;;;;;5091027;28;20110;-71
2021/12/12 03:22:37;;;;;;;93.78;28.83;;;;;;;;;;5092828;28;20052;-71
2021/12/12 03:25:04;;;;;;;79.95;30.80;;;;;;;;;;5091071;28;20394;-70
2021/12/12 03:27:31;;;;;;;82.03;31.05;;;;;;;;;;5081289;28;20024;-72
2021/12/12 03:29:57;;;;;;;79.82;32.40;;;;;;;;;;5081889;28;20474;-71
2021/12/12 03:32:24;;;;;;;74.03;27.70;;;;;;;;;;5085776;28;20394;-71
2021/12/12 03:34:53;;;;;;;86.60;25.67;;;;;;;;;;5093909;28;20020;-70
2021/12/12 03:37:21;;;;;;;82.88;34.72;;;;;;;;;;5081867;28;20028;-72
2021/12/12 03:39:50;;;;;;;123.70;51.30;;;;;;;;;;5084355;28;20020;-70
2021/12/12 03:42:18;;;;;;;139.27;58.85;;;;;;;;;;5100581;28;20028;-71
2021/12/12 03:44:45;;;;;;;119.15;51.08;;;;;;;;;;5098416;28;20038;-70
2021/12/12 03:47:17;;;;;;;103.10;41.97;;;;;;;;;;5079059;28;20028;-70
2021/12/12 03:49:43;;;;;;;86.88;34.10;;;;;;;;;;5087421;28;20035;-70
2021/12/12 03:52:11;;;;;;;74.30;26.95;;;;;;;;;;5083724;28;20485;-71
2021/12/12 03:54:38;;;;;;;78.47;24.95;;;;;;;;;;5081567;28;20024;-71
2021/12/12 03:57:06;;;;;;;70.13;23.67;;;;;;;;;;5090222;28;20412;-71
2021/12/12 03:59:32;;;;;;;73.20;20.95;;;;;;;;;;5092261;28;20111;-72
2021/12/12 04:01:59;;;;;;;69.55;19.73;;;;;;;;;;5089391;28;20032;-70
2021/12/12 04:04:31;;;;;;;59.08;20.08;;;;;;;;;;5087429;28;20032;-70
2021/12/12 04:06:58;;;;;;;51.35;19.65;;;;;;;;;;5087957;28;20025;-70
2021/12/12 04:09:25;;;;;;;66.30;19.73;;;;;;;;;;5091952;28;20036;-71
2021/12/12 04:11:53;;;;;;;63.15;20.15;;;;;;;;;;5085740;28;20074;-71
2021/12/12 04:14:21;;;;;;;70.18;21.00;;;;;;;;;;5090287;28;20381;-72
2021/12/12 04:16:49;;;;;;;75.00;21.08;;;;;;;;;;5086002;28;20020;-72
2021/12/12 04:19:15;;;;;;;63.60;22.98;;;;;;;;;;5087813;28;20031;-72
2021/12/12 04:21:42;;;;;;;70.75;20.65;;;;;;;;;;5088510;28;20047;-70
2021/12/12 04:24:09;;;;;;;65.28;20.52;;;;;;;;;;5087592;28;20040;-71
2021/12/12 04:26:37;;;;;;;69.88;21.55;;;;;;;;;;5087389;28;20067;-71
2021/12/12 04:29:12;;;;;;;69.38;23.15;;;;;;;;;;5087007;28;23038;-73
2021/12/12 04:31:40;;;;;;;65.47;21.67;;;;;;;;;;5084336;28;20115;-70
2021/12/12 04:34:07;;;;;;;61.38;20.50;;;;;;;;;;5089812;28;20027;-70
2021/12/12 04:36:35;;;;;;;66.22;21.85;;;;;;;;;;5087906;28;20043;-71
2021/12/12 04:39:06;;;;;;;63.88;22.67;;;;;;;;;;5088595;28;20032;-72
2021/12/12 04:41:33;;;;;;;66.68;22.17;;;;;;;;;;5090986;28;20389;-72
2021/12/12 04:43:59;;;;;;;75.22;21.58;;;;;;;;;;5087173;28;20035;-72
2021/12/12 04:46:36;;;;;;;77.63;22.55;;;;;;;;;;5083044;28;20034;-71
2021/12/12 04:52:01;;;;;;;73.90;23.45;;;;;;;;;;5083971;28;20043;-74
2021/12/12 04:54:37;;;;;;;65.25;23.33;;;;;;;;;;5085198;28;20076;-71
2021/12/12 04:57:03;;;;;;;71.18;22.42;;;;;;;;;;5092317;28;20140;-72
2021/12/12 04:59:40;;;;;;;71.47;22.13;;;;;;;;;;5086652;28;20020;-72
2021/12/12 05:02:07;;;;;;;68.80;21.80;;;;;;;;;;5081451;28;20032;-74
2021/12/12 05:04:38;;;;;;;74.80;22.30;;;;;;;;;;5082574;28;20070;-72
2021/12/12 05:07:19;;;;;;;66.18;22.67;;;;;;;;;;5087878;28;20031;-71
2021/12/12 05:09:50;;;;;;;73.80;24.88;;;;;;;;;;5088838;28;20474;-72
2021/12/12 05:12:31;;;;;;;77.70;21.95;;;;;;;;;;5090425;28;20044;-71
2021/12/12 05:15:02;;;;;;;57.03;21.67;;;;;;;;;;5090003;28;20035;-71
2021/12/12 05:17:35;;;;;;;66.00;20.98;;;;;;;;;;5084198;28;20277;-71
2021/12/12 05:20:05;;;;;;;59.97;23.15;;;;;;;;;;5089691;28;20039;-72
2021/12/12 05:22:38;;;;;;;68.15;22.35;;;;;;;;;;5090165;28;20506;-71
2021/12/12 05:25:08;;;;;;;78.97;22.05;;;;;;;;;;5083527;28;20043;-71
2021/12/12 05:27:35;;;;;;;69.07;22.60;;;;;;;;;;5087626;28;20386;-71
2021/12/12 05:30:07;;;;;;;77.70;22.08;;;;;;;;;;5083787;28;20050;-70
2021/12/12 05:32:36;;;;;;;66.72;22.25;;;;;;;;;;5086988;28;20097;-71
2021/12/12 05:35:03;;;;;;;68.15;21.35;;;;;;;;;;5085264;28;20027;-70
2021/12/12 05:37:30;;;;;;;60.83;24.05;;;;;;;;;;5091212;28;20028;-71
2021/12/12 05:40:00;;;;;;;66.25;23.98;;;;;;;;;;5088685;28;20027;-71
2021/12/12 05:42:27;;;;;;;60.35;23.15;;;;;;;;;;5082817;28;20089;-72
2021/12/12 05:44:54;;;;;;;73.50;24.80;;;;;;;;;;5087778;28;20040;-72
2021/12/12 05:47:20;;;;;;;73.75;25.10;;;;;;;;;;5088853;28;20039;-70
2021/12/12 05:49:47;;;;;;;74.63;26.25;;;;;;;;;;5088543;28;20036;-70
2021/12/12 05:52:15;;;;;;;74.50;25.52;;;;;;;;;;5091291;28;20371;-71
2021/12/12 05:54:42;;;;;;;79.50;25.95;;;;;;;;;;5086125;28;20032;-71
2021/12/12 05:57:10;;;;;;;78.70;27.80;;;;;;;;;;5086651;28;20055;-72
2021/12/12 05:59:36;;;;;;;77.53;26.50;;;;;;;;;;5089705;28;20034;-70
2021/12/12 06:02:05;;;;;;;77.07;24.55;;;;;;;;;;5089999;28;20036;-71
2021/12/12 06:04:31;;;;;;;62.45;25.85;;;;;;;;;;5100760;28;20242;-72
2021/12/12 06:06:58;;;;;;;81.55;24.35;;;;;;;;;;5093400;28;20467;-71
2021/12/12 06:09:25;;;;;;;76.72;24.83;;;;;;;;;;5086620;28;20110;-71
2021/12/12 06:11:53;;;;;;;69.50;23.60;;;;;;;;;;5090087;28;20027;-72
2021/12/12 06:14:21;;;;;;;65.40;23.33;;;;;;;;;;5086868;28;20027;-73
2021/12/12 06:16:47;;;;;;;73.90;23.42;;;;;;;;;;5086006;28;20099;-71
2021/12/12 06:19:14;;;;;;;72.50;23.65;;;;;;;;;;5078159;28;20039;-71
2021/12/12 06:21:41;;;;;;;65.15;23.27;;;;;;;;;;5085245;28;20089;-70
2021/12/12 06:24:07;;;;;;;62.55;23.08;;;;;;;;;;5082950;28;20048;-72
2021/12/12 06:26:34;;;;;;;73.75;25.25;;;;;;;;;;5082183;28;20466;-71
2021/12/12 06:29:01;;;;;;;82.80;24.30;;;;;;;;;;5082598;28;20612;-70
2021/12/12 06:31:27;;;;;;;69.82;24.38;;;;;;;;;;5094121;28;20020;-73
2021/12/12 06:33:55;;;;;;;74.03;24.38;;;;;;;;;;5091895;28;20028;-71
2021/12/12 06:36:22;;;;;;;64.63;25.83;;;;;;;;;;5092316;28;20032;-71
2021/12/12 06:38:50;;;;;;;67.13;22.23;;;;;;;;;;5093477;28;20024;-70
2021/12/12 06:41:17;;;;;;;68.85;21.90;;;;;;;;;;5088213;28;20419;-72
2021/12/12 06:43:43;;;;;;;60.63;21.88;;;;;;;;;;5091817;28;20032;-72
2021/12/12 06:46:10;;;;;;;65.00;21.50;;;;;;;;;;5089323;28;20102;-73
2021/12/12 06:48:38;;;;;;;56.50;22.23;;;;;;;;;;5094783;28;20016;-73
2021/12/12 06:51:04;;;;;;;75.05;22.30;;;;;;;;;;5088420;28;20077;-72
2021/12/12 06:53:32;;;;;;;53.47;20.70;;;;;;;;;;5087529;28;20036;-72
2021/12/12 06:55:59;;;;;;;67.90;22.42;;;;;;;;;;5085790;28;20032;-72
2021/12/12 06:58:27;;;;;;;61.13;22.08;;;;;;;;;;5086971;28;20533;-71
2021/12/12 07:01:00;;;;;;;56.42;21.35;;;;;;;;;;5088714;28;20103;-71
2021/12/12 07:03:26;;;;;;;70.82;23.05;;;;;;;;;;5096877;28;20016;-71
2021/12/12 07:05:53;;;;;;;77.47;25.85;;;;;;;;;;5089844;28;20132;-72
2021/12/12 07:08:21;;;;;;;65.35;23.90;;;;;;;;;;5090317;28;20493;-71
2021/12/12 07:10:48;;;;;;;70.25;25.38;;;;;;;;;;5093925;28;20031;-72
2021/12/12 07:13:15;;;;;;;75.97;23.25;;;;;;;;;;5091672;28;20186;-71
2021/12/12 07:15:44;;;;;;;73.82;25.75;;;;;;;;;;5088007;28;20058;-71
2021/12/12 07:18:12;;;;;;;65.32;23.50;;;;;;;;;;5087961;28;20040;-70
2021/12/12 07:20:39;;;;;;;64.57;23.15;;;;;;;;;;5096072;28;20028;-72
2021/12/12 07:23:06;;;;;;;67.05;24.42;;;;;;;;;;5090524;28;20335;-71
2021/12/12 07:25:34;;;;;;;68.93;23.75;;;;;;;;;;5095420;28;20059;-70
2021/12/12 07:28:00;;;;;;;73.93;23.13;;;;;;;;;;5086398;28;20461;-72
2021/12/12 07:30:27;;;;;;;74.65;21.27;;;;;;;;;;5089024;28;20036;-71
2021/12/12 07:32:54;;;;;;;65.07;21.63;;;;;;;;;;5091833;28;20027;-72
2021/12/12 07:35:20;;;;;;;67.43;19.80;;;;;;;;;;5088579;28;20027;-71
2021/12/12 07:37:48;;;;;;;69.47;20.20;;;;;;;;;;5088549;28;20007;-71
2021/12/12 07:40:15;;;;;;;55.33;18.80;;;;;;;;;;5090364;28;20466;-73
2021/12/12 07:42:43;;;;;;;64.13;19.20;;;;;;;;;;5088782;28;20397;-74
2021/12/12 07:45:10;;;;;;;69.53;20.17;;;;;;;;;;5090891;28;20035;-72
2021/12/12 07:47:36;;;;;;;53.72;18.17;;;;;;;;;;5091835;28;20019;-72
2021/12/12 07:50:05;;;;;;;70.78;19.20;;;;;;;;;;5084396;28;20478;-72
2021/12/12 07:52:32;;;;;;;55.22;18.08;;;;;;;;;;5091232;28;20066;-71
2021/12/12 07:54:58;;;;;;;64.75;17.55;;;;;;;;;;5091475;28;20387;-73
2021/12/12 07:57:29;;;;;;;68.15;18.35;;;;;;;;;;5090014;28;20479;-71
2021/12/12 07:59:56;;;;;;;60.88;17.88;;;;;;;;;;5088839;28;20028;-71
2021/12/12 08:02:23;;;;;;;65.68;15.38;;;;;;;;;;5088049;28;20027;-71
2021/12/12 08:04:50;;;;;;;68.35;18.38;;;;;;;;;;5081978;28;20028;-71
2021/12/12 08:07:19;;;;;;;61.65;18.20;;;;;;;;;;5097766;28;20511;-71
2021/12/12 08:09:47;;;;;;;63.83;18.33;;;;;;;;;;5093099;28;20038;-71
2021/12/12 08:12:18;;;;;;;57.60;14.95;;;;;;;;;;5085618;28;20445;-72
2021/12/12 08:14:45;;;;;;;58.78;15.60;;;;;;;;;;5085628;28;20016;-71
2021/12/12 08:17:12;;;;;;;67.65;15.68;;;;;;;;;;5087113;28;20020;-72
2021/12/12 08:19:39;;;;;;;56.47;14.65;;;;;;;;;;5088883;28;20106;-71
2021/12/12 08:22:07;;;;;;;63.60;16.45;;;;;;;;;;5086472;28;20040;-72
2021/12/12 08:24:34;;;;;;;59.08;17.52;;;;;;;;;;5089205;28;20020;-71
2021/12/12 08:27:01;;;;;;;60.58;17.25;;;;;;;;;;5091649;28;20078;-73
2021/12/12 08:29:28;;;;;;;68.20;16.60;;;;;;;;;;5082689;28;20032;-72
2021/12/12 08:31:55;;;;;;;74.47;17.42;;;;;;;;;;5089629;28;20033;-71
2021/12/12 08:34:21;;;;;;;58.03;16.92;;;;;;;;;;5088195;28;20381;-71
2021/12/12 08:36:49;;;;;;;64.75;17.98;;;;;;;;;;5084091;28;20219;-71
2021/12/12 08:39:16;;;;;;;56.70;16.60;;;;;;;;;;5088792;28;20933;-73
2021/12/12 08:41:44;;;;;;;61.65;17.13;;;;;;;;;;5090823;28;20033;-72
2021/12/12 08:44:11;;;;;;;67.85;18.25;;;;;;;;;;5088557;28;20020;-72
2021/12/12 08:46:38;;;;;;;52.90;16.92;;;;;;;;;;5086129;28;20490;-72
2021/12/12 08:49:05;;;;;;;62.60;17.63;;;;;;;;;;5090520;28;21239;-71
2021/12/12 08:51:34;;;;;;;60.92;17.20;;;;;;;;;;5090061;28;20024;-72
2021/12/12 08:54:07;;;;;;;62.67;17.38;;;;;;;;;;5086795;28;20028;-72
2021/12/12 08:56:45;;;;;;;63.13;17.83;;;;;;;;;;5097580;28;20108;-73
2021/12/12 08:59:15;;;;;;;55.88;17.90;;;;;;;;;;5090621;28;20024;-71
2021/12/12 09:01:42;;;;;;;56.65;18.58;;;;;;;;;;5089966;28;20052;-73
2021/12/12 09:04:09;;;;;;;56.42;18.48;;;;;;;;;;5092010;28;20047;-71
2021/12/12 09:06:38;;;;;;;60.50;19.45;;;;;;;;;;5091627;28;20517;-72
2021/12/12 09:09:07;;;;;;;62.53;18.98;;;;;;;;;;5095266;28;20369;-72
2021/12/12 09:11:34;;;;;;;61.13;18.40;;;;;;;;;;5093746;28;20024;-72
2021/12/12 09:14:12;;;;;;;64.70;19.40;;;;;;;;;;5089279;28;20017;-70
2021/12/12 09:16:52;;;;;;;60.10;18.65;;;;;;;;;;5093781;28;20050;-72
2021/12/12 09:19:25;;;;;;;61.50;17.15;;;;;;;;;;5088290;28;20040;-73
2021/12/12 09:21:58;;;;;;;64.75;18.52;;;;;;;;;;5087300;28;20056;-72
2021/12/12 09:24:28;;;;;;;64.07;18.23;;;;;;;;;;5090913;28;20375;-71
2021/12/12 09:26:58;;;;;;;71.65;18.50;;;;;;;;;;5092232;28;20032;-70
2021/12/12 09:29:27;;;;;;;61.85;17.65;;;;;;;;;;5088780;28;20027;-71
2021/12/12 09:31:59;;;;;;;65.90;18.70;;;;;;;;;;5088296;28;20055;-71
2021/12/12 09:34:28;;;;;;;74.65;20.63;;;;;;;;;;5084920;28;20318;-70
2021/12/12 09:36:58;;;;;;;63.33;19.33;;;;;;;;;;5091093;28;20091;-71
2021/12/12 09:39:26;;;;;;;72.32;21.30;;;;;;;;;;5090501;28;20051;-71
2021/12/12 09:42:00;;;;;;;88.45;20.77;;;;;;;;;;5089810;28;20020;-72
2021/12/12 09:44:41;;;;;;;59.88;18.55;;;;;;;;;;5091994;28;20107;-70
2021/12/12 09:47:35;;;;;;;69.47;22.02;;;;;;;;;;5093201;28;20028;-72
2021/12/12 09:53:11;;;;;;;66.93;21.13;;;;;;;;;;5091335;28;20135;-71
2021/12/12 09:56:00;;;;;;;65.35;22.23;;;;;;;;;;5089432;28;20024;-73
2021/12/12 09:58:37;;;;;;;83.68;25.20;;;;;;;;;;5085627;28;20028;-71
2021/12/12 10:01:07;;;;;;;87.63;36.05;;;;;;;;;;5088840;28;20055;-71
2021/12/12 10:03:34;;;;;;;91.38;40.92;;;;;;;;;;5085822;28;20401;-71
2021/12/12 10:06:08;;;;;;;92.03;40.75;;;;;;;;;;5091655;28;20467;-72
2021/12/12 10:08:53;;;;;;;102.10;43.78;;;;;;;;;;5091354;28;20067;-71
2021/12/12 10:11:23;;;;;;;109.68;43.05;;;;;;;;;;5092491;28;20408;-71
2021/12/12 10:13:57;;;;;;;115.18;46.25;;;;;;;;;;5090774;28;20056;-72
2021/12/12 10:16:46;;;;;;;123.15;52.08;;;;;;;;;;5092700;28;20393;-71
2021/12/12 10:19:26;;;;;;;116.50;51.85;;;;;;;;;;5089838;28;20109;-71
2021/12/12 10:22:00;;;;;;;119.25;55.85;;;;;;;;;;5086934;28;20126;-70
2021/12/12 10:24:38;;;;;;;127.82;55.92;;;;;;;;;;5089281;28;20064;-72
2021/12/12 10:27:20;;;;;;;116.45;46.22;;;;;;;;;;5092837;28;20036;-71
2021/12/12 10:30:05;;;;;;;112.05;43.95;;;;;;;;;;5091897;28;20027;-72
2021/12/12 10:32:37;;;;;;;114.32;44.63;;;;;;;;;;5092176;28;20075;-72
2021/12/12 10:35:07;;;;;;;105.85;45.38;;;;;;;;;;5088609;28;20020;-71
2021/12/12 10:37:42;;;;;;;109.63;45.70;;;;;;;;;;5087033;28;20039;-71
2021/12/12 10:40:12;;;;;;;102.55;42.50;;;;;;;;;;5088243;28;20020;-72
2021/12/12 10:42:44;;;;;;;101.35;42.10;;;;;;;;;;5088548;28;20289;-71
2021/12/12 10:45:14;;;;;;;112.53;43.20;;;;;;;;;;5084662;28;20023;-71
2021/12/12 10:47:43;;;;;;;113.68;44.58;;;;;;;;;;5087709;28;20508;-72
2021/12/12 10:50:14;;;;;;;112.32;43.42;;;;;;;;;;5091021;28;20036;-71
2021/12/12 10:52:53;;;;;;;115.38;44.88;;;;;;;;;;5090198;28;20020;-69
2021/12/12 10:55:32;;;;;;;103.93;43.97;;;;;;;;;;5088148;28;20029;-72
2021/12/12 10:58:12;;;;;;;101.13;41.55;;;;;;;;;;5088714;28;20020;-71
2021/12/12 11:00:44;;;;;;;111.03;42.85;;;;;;;;;;5090329;28;20012;-75
2021/12/12 11:03:32;;;;;;;99.60;40.38;;;;;;;;;;5093226;28;20020;-72
2021/12/12 11:06:04;;;;;;;85.03;38.72;;;;;;;;;;5090533;28;20024;-73
2021/12/12 11:08:39;;;;;;;108.80;40.78;;;;;;;;;;5091289;28;20020;-73
2021/12/12 11:11:16;;;;;;;93.18;40.10;;;;;;;;;;5088695;28;20378;-72
2021/12/12 11:13:50;;;;;;;104.15;41.75;;;;;;;;;;5091171;28;20016;-71
2021/12/12 11:16:29;;;;;;;103.45;40.75;;;;;;;;;;5091347;28;20031;-71
2021/12/12 11:19:06;;;;;;;104.63;42.15;;;;;;;;;;5090712;28;21355;-72
2021/12/12 11:21:44;;;;;;;108.95;39.55;;;;;;;;;;5092393;28;20221;-72
2021/12/12 11:24:20;;;;;;;99.18;39.45;;;;;;;;;;5091767;28;20022;-72
2021/12/12 11:26:49;;;;;;;97.38;38.95;;;;;;;;;;5094675;28;20031;-72
2021/12/12 11:29:17;;;;;;;94.75;41.05;;;;;;;;;;5095246;28;20492;-71
2021/12/12 11:31:46;;;;;;;92.93;40.55;;;;;;;;;;5092519;28;20020;-71
2021/12/12 11:34:13;;;;;;;102.22;37.92;;;;;;;;;;5091018;28;20024;-72
2021/12/12 11:36:51;;;;;;;103.47;44.15;;;;;;;;;;5091670;28;20370;-71
2021/12/12 11:39:36;;;;;;;109.70;44.17;;;;;;;;;;5090388;28;20030;-71
2021/12/12 11:42:09;;;;;;;114.00;47.55;;;;;;;;;;5084778;28;20036;-72
2021/12/12 11:44:41;;;;;;;115.57;47.80;;;;;;;;;;5086620;28;20351;-71
2021/12/12 11:47:11;;;;;;;128.25;52.95;;;;;;;;;;5085509;28;20031;-73
2021/12/12 11:49:50;;;;;;;116.50;50.58;;;;;;;;;;5094577;28;20028;-72
2021/12/12 11:52:22;;;;;;;128.68;54.83;;;;;;;;;;5091235;28;20028;-71
2021/12/12 11:54:49;;;;;;;132.45;56.30;;;;;;;;;;5085798;28;20027;-71
2021/12/12 11:57:26;;;;;;;135.30;54.97;;;;;;;;;;5088037;28;20019;-72
2021/12/12 11:59:59;;;;;;;124.22;52.80;;;;;;;;;;5090327;28;20020;-73
2021/12/12 12:02:34;;;;;;;138.18;54.10;;;;;;;;;;5088227;28;20070;-72
2021/12/12 12:05:27;;;;;;;120.82;52.97;;;;;;;;;;5089982;28;20434;-71
2021/12/12 12:08:00;;;;;;;117.60;51.30;;;;;;;;;;5073616;28;20039;-73
2021/12/12 12:10:42;;;;;;;112.82;54.10;;;;;;;;;;5093047;28;20356;-73
2021/12/12 12:13:08;;;;;;;113.30;50.15;;;;;;;;;;5091828;28;20043;-72
2021/12/12 12:15:34;;;;;;;120.82;52.08;;;;;;;;;;5091044;28;20066;-72
2021/12/12 12:18:14;;;;;;;107.72;51.63;;;;;;;;;;5077163;28;20029;-74
2021/12/12 12:20:51;;;;;;;116.47;51.72;;;;;;;;;;5092392;28;20111;-72
2021/12/12 12:23:19;;;;;;;121.70;52.22;;;;;;;;;;5091941;28;20135;-72
2021/12/12 12:28:58;;;;;;;125.38;55.42;;;;;;;;;;5059095;28;20071;-72
2021/12/12 12:31:36;;;;;;;131.45;54.67;;;;;;;;;;5070721;28;20426;-72
2021/12/12 12:34:18;;;;;;;126.80;53.30;;;;;;;;;;5074931;28;20052;-72
2021/12/12 12:37:03;;;;;;;111.00;50.97;;;;;;;;;;5092486;28;20024;-71
2021/12/12 12:39:32;;;;;;;114.20;47.83;;;;;;;;;;5086492;28;20036;-72
2021/12/12 12:42:21;;;;;;;113.03;49.90;;;;;;;;;;5092380;28;20055;-72
2021/12/12 12:45:06;;;;;;;121.50;49.75;;;;;;;;;;5094815;28;20020;-73
2021/12/12 12:47:41;;;;;;;126.80;56.13;;;;;;;;;;5096201;28;20390;-72
2021/12/12 12:50:20;;;;;;;118.65;53.13;;;;;;;;;;5095631;28;20377;-73
2021/12/12 12:52:46;;;;;;;134.57;54.88;;;;;;;;;;5094473;28;20024;-73
2021/12/12 12:55:25;;;;;;;128.82;54.55;;;;;;;;;;5094731;28;20347;-72
2021/12/12 12:57:53;;;;;;;133.63;56.45;;;;;;;;;;5093944;28;20020;-72
2021/12/12 13:00:22;;;;;;;130.13;56.22;;;;;;;;;;5089186;28;20024;-73
2021/12/12 13:03:07;;;;;;;123.28;53.55;;;;;;;;;;5093129;28;20481;-73
2021/12/12 13:05:52;;;;;;;125.15;53.38;;;;;;;;;;5088003;28;20024;-72
2021/12/12 13:08:37;;;;;;;117.53;53.47;;;;;;;;;;5090185;28;20036;-73
2021/12/12 13:11:05;;;;;;;113.13;51.67;;;;;;;;;;5094436;28;20025;-72
2021/12/12 13:13:50;;;;;;;112.85;54.33;;;;;;;;;;5084382;28;20031;-72
2021/12/12 13:16:25;;;;;;;126.60;55.50;;;;;;;;;;5088531;28;20494;-71
2021/12/12 13:18:57;;;;;;;117.47;55.67;;;;;;;;;;5094824;28;20085;-73
2021/12/12 13:21:30;;;;;;;111.70;53.28;;;;;;;;;;5098261;28;20148;-72
2021/12/12 13:24:13;;;;;;;123.50;55.60;;;;;;;;;;5095021;28;20024;-72
2021/12/12 13:26:58;;;;;;;129.15;55.80;;;;;;;;;;5090125;28;20032;-72
2021/12/12 13:29:39;;;;;;;135.80;57.83;;;;;;;;;;5094637;28;20032;-72
2021/12/12 13:32:13;;;;;;;128.48;58.90;;;;;;;;;;5090014;28;20063;-71
2021/12/12 13:34:43;;;;;;;142.30;65.60;;;;;;;;;;5091912;28;20061;-75
2021/12/12 13:37:19;;;;;;;150.70;69.25;;;;;;;;;;5094457;28;20095;-72
2021/12/12 13:40:03;;;;;;;149.43;71.28;;;;;;;;;;5089853;28;20360;-73
2021/12/12 13:42:39;;;;;;;166.35;79.95;;;;;;;;;;5092801;28;20032;-72
2021/12/12 13:45:12;;;;;;;176.30;88.07;;;;;;;;;;5092899;28;20028;-72
2021/12/12 13:47:38;;;;;;;177.73;87.75;;;;;;;;;;5088028;28;20069;-70
2021/12/12 13:50:04;;;;;;;173.85;89.53;;;;;;;;;;5083636;28;20047;-73
2021/12/12 13:52:38;;;;;;;184.30;93.45;;;;;;;;;;5081321;28;20039;-71
2021/12/12 13:55:13;;;;;;;174.77;93.38;;;;;;;;;;5092150;28;20481;-72
2021/12/12 13:57:57;;;;;;;185.73;93.32;;;;;;;;;;5088402;28;20028;-72
2021/12/12 14:00:27;;;;;;;203.50;103.88;;;;;;;;;;5085333;28;20020;-73
2021/12/12 14:02:59;;;;;;;174.80;87.95;;;;;;;;;;5093715;28;20020;-72
2021/12/12 14:05:28;;;;;;;184.27;101.85;;;;;;;;;;5082235;28;20020;-73
2021/12/12 14:08:02;;;;;;;199.35;103.20;;;;;;;;;;5084246;28;20031;-72
2021/12/12 14:10:32;;;;;;;190.32;95.63;;;;;;;;;;5093346;28;20032;-72
2021/12/12 14:13:10;;;;;;;177.68;87.32;;;;;;;;;;5093118;28;20036;-71
2021/12/12 14:15:38;;;;;;;176.15;84.60;;;;;;;;;;5094697;28;20020;-73
2021/12/12 14:18:06;;;;;;;151.90;76.50;;;;;;;;;;5094287;28;20028;-72
2021/12/12 14:20:50;;;;;;;146.48;68.18;;;;;;;;;;5093740;28;20437;-72
2021/12/12 14:23:19;;;;;;;153.02;66.30;;;;;;;;;;5093352;28;20055;-72
2021/12/12 14:25:46;;;;;;;138.73;64.68;;;;;;;;;;5092931;28;20058;-72
2021/12/12 14:28:13;;;;;;;137.52;64.20;;;;;;;;;;5093193;28;20024;-74
2021/12/12 14:30:41;;;;;;;149.68;69.03;;;;;;;;;;5095013;28;20403;-73
2021/12/12 14:33:11;;;;;;;149.70;69.15;;;;;;;;;;5087653;28;20033;-71
2021/12/12 14:35:51;;;;;;;147.48;70.80;;;;;;;;;;5085854;28;20064;-74
2021/12/12 14:38:19;;;;;;;142.18;69.72;;;;;;;;;;5086226;28;20078;-73
2021/12/12 14:40:48;;;;;;;159.68;72.35;;;;;;;;;;5094003;28;20097;-72
2021/12/12 14:43:24;;;;;;;152.13;69.53;;;;;;;;;;5088085;28;20035;-73
2021/12/12 14:45:53;;;;;;;137.75;64.25;;;;;;;;;;5085293;28;20052;-73
2021/12/12 14:48:24;;;;;;;112.95;52.83;;;;;;;;;;5089272;28;20031;-72
2021/12/12 14:50:55;;;;;;;117.82;48.25;;;;;;;;;;5092767;28;20458;-72
2021/12/12 14:53:23;;;;;;;113.22;46.83;;;;;;;;;;5086105;28;20103;-72
2021/12/12 14:55:54;;;;;;;89.53;38.20;;;;;;;;;;5093059;28;20415;-72